• Join FlightAware (Why Join?)
  • Login
  • US Flag 
12:43AM EDT


 

Airport Tracker/Info


-or-


 

Live Flight TrackerFlight Track Log ✈ UAL906 ✈ 19-Apr-2013 ✈ KORD - EDDM / MUC

Flight Track Log - Related Links

Times and Time Zones

All times are in EDT time to prevent confusion due to time zone crossing. See the UAL906 flight status page for this flight to view local times or setup timezone preferences in your user account.

Time Position Orientation Groundspeed Altitude Reporting Facility
EDT Latitude Longitude Course Direction KTS MPH feet Rate Location/Type
07:14PM 41.9880 -87.9230 317° Northwest 170 196 1,200  Level FlightAware
07:14PM 42.0010 -87.9340 328° Northwest 164 189 2,300 1,980 Climbing FlightAware
07:15PM 42.0200 -87.9490 330° Northwest 206 237 2,700 1,560 Climbing FlightAware
07:15PM 42.0410 -87.9660 329° Northwest 217 250 3,600 2,400 Climbing FlightAware
07:15PM 42.0510 -87.9750 326° Northwest 215 247 4,300 1,980 Climbing FlightAware
07:16PM 42.0800 -87.9980 330° Northwest 233 268 5,100 1,200 Climbing FlightAware
07:16PM 42.0930 -88.0090 328° Northwest 238 274 5,200 120 Climbing FlightAware
07:16PM 42.1150 -88.0260 330° Northwest 235 270 5,200  Level FlightAware
07:17PM 42.1310 -88.0310 347° North 244 281 5,200 120 Level FlightAware
07:17PM 42.1680 -88.0260 North 250 288 5,300 420 Climbing FlightAware
07:18PM 42.1960 -88.0200 North 248 285 5,600 1,500 Climbing FlightAware
07:18PM 42.2130 -88.0170 North 250 288 6,300 2,700 Climbing FlightAware
07:18PM 42.2440 -88.0110 North 259 298 7,400 2,460 Climbing FlightAware
07:19PM 42.2810 -88.0060 North 265 305 8,600 2,400 Climbing FlightAware
07:19PM 42.3150 -88.0010 North 267 307 9,800 1,800 Climbing FlightAware
07:20PM 42.3700 -87.9930 North 307 353 10,700 1,020 Climbing FlightAware
07:21PM 42.4300 -87.9850 North 351 404 11,200 1,500 Climbing FlightAware
07:21PM 42.5030 -87.9720 North 371 427 12,900 2,400 Climbing FlightAware
07:22PM 42.5680 -87.9320 24° Northeast 386 444 14,600 2,280 Climbing FlightAware
07:23PM 42.6410 -87.8760 29° Northeast 408 470 16,200 1,920 Climbing FlightAware
07:23PM 42.6970 -87.8130 40° Northeast 422 486 17,400 1,860 Climbing FlightAware
07:24PM 42.7590 -87.7450 39° Northeast 432 497 18,700 1,980 Climbing FlightAware
07:25PM 42.8560 -87.6370 39° Northeast 444 511 20,700 1,920 Climbing FlightAware
07:26PM 42.9190 -87.5670 39° Northeast 450 518 21,900 1,740 Climbing FlightAware
07:26PM 42.9940 -87.4840 39° Northeast 459 528 23,200 1,440 Climbing FlightAware
07:27PM 43.0570 -87.4140 39° Northeast 469 540 24,000 660 Climbing FlightAware
07:28PM 43.1210 -87.3420 39° Northeast 469 540 24,100 1,320 Climbing FlightAware
07:29PM 43.2040 -87.2480 40° Northeast 487 560 25,900 1,800 Climbing FlightAware
07:29PM 43.2700 -87.1740 39° Northeast 494 568 26,700 1,620 Climbing FlightAware
07:30PM 43.3560 -87.0760 40° Northeast 491 565 28,200 1,800 Climbing FlightAware
07:31PM 43.4160 -87.0090 39° Northeast 491 565 29,100 1,260 Climbing FlightAware
07:31PM 43.4940 -86.9200 40° Northeast 496 571 29,900 1,200 Climbing FlightAware
07:32PM 43.5720 -86.8310 40° Northeast 496 571 30,900 720 Climbing FlightAware
07:33PM 43.6470 -86.7450 40° Northeast 509 586 31,000 60 Climbing FlightAware
07:33PM 43.7170 -86.6650 40° Northeast 512 589 31,000  Level FlightAware
07:34PM 43.8040 -86.5660 39° Northeast 515 593 31,000  Level FlightAware
07:35PM 43.8660 -86.4950 40° Northeast 516 594 31,000  Level FlightAware
07:36PM 43.9540 -86.3920 40° Northeast 521 600 31,000  Level FlightAware
07:36PM 44.0330 -86.3000 40° Northeast 523 602 31,000  Level FlightAware
07:37PM 44.1140 -86.2060 40° Northeast 525 604 31,000  Level FlightAware
07:38PM 44.1890 -86.1180 40° Northeast 525 604 31,000  Level FlightAware
07:38PM 44.2550 -86.0410 40° Northeast 526 605 31,000  Level FlightAware
07:39PM 44.3420 -85.9380 40° Northeast 525 604 31,000  Level FlightAware
07:40PM 44.4220 -85.8440 40° Northeast 524 603 31,000  Level FlightAware
07:40PM 44.5020 -85.7490 40° Northeast 524 603 31,000  Level FlightAware
07:41PM 44.5800 -85.6570 40° Northeast 523 602 31,000  Level FlightAware
07:42PM 44.6440 -85.5760 42° Northeast 522 601 31,000  Level FlightAware
07:43PM 44.7160 -85.4580 49° Northeast 520 598 31,000  Level FlightAware
07:43PM 44.7770 -85.3420 53° Northeast 519 597 31,000  Level FlightAware
07:44PM 44.8260 -85.2470 54° Northeast 519 597 31,000  Level FlightAware
07:45PM 44.9010 -85.1020 54° Northeast 519 597 31,000  Level FlightAware
07:45PM 44.9660 -84.9750 54° Northeast 519 597 31,000  Level FlightAware
07:46PM 45.0210 -84.8670 54° Northeast 520 598 31,000  Level FlightAware
07:47PM 45.0880 -84.7370 54° Northeast 520 598 31,000  Level FlightAware
07:48PM 45.1450 -84.6270 54° Northeast 522 601 31,000  Level FlightAware
07:48PM 45.2020 -84.5160 54° Northeast 522 601 31,000  Level FlightAware
07:49PM 45.2640 -84.3940 54° Northeast 525 604 31,000  Level FlightAware
07:50PM 45.3200 -84.2830 54° Northeast 527 606 31,000  Level FlightAware
07:50PM 45.3770 -84.1700 54° Northeast 529 609 31,000  Level FlightAware
07:51PM 45.4430 -84.0360 55° Northeast 529 609 31,000  Level FlightAware
07:52PM 45.4990 -83.9230 55° Northeast 531 611 31,000  Level FlightAware
07:52PM 45.5600 -83.7970 55° Northeast 534 615 31,000  Level FlightAware
07:53PM 45.6180 -83.6810 54° Northeast 535 616 31,000  Level FlightAware
07:54PM 45.6820 -83.5500 55° Northeast 538 619 31,000  Level FlightAware
07:55PM 45.7400 -83.4310 55° Northeast 539 620 31,000  Level FlightAware
07:55PM 45.7970 -83.3130 55° Northeast 540 621 31,000  Level FlightAware
07:56PM 45.8580 -83.1860 55° Northeast 541 623 31,000  Level FlightAware
07:57PM 45.9170 -83.0630 55° Northeast 543 625 31,000  Level FlightAware
07:57PM 45.9820 -82.9280 55° Northeast 545 627 31,000  Level FlightAware
07:58PM 46.0350 -82.8180 55° Northeast 547 629 31,000  Level FlightAware
07:59PM 46.0960 -82.6900 55° Northeast 548 631 31,000  Level FlightAware
07:59PM 46.1590 -82.5560 56° Northeast 548 631 31,000  Level FlightAware
08:00PM 46.2160 -82.4340 56° Northeast 549 632 31,000  Level FlightAware
08:01PM 46.2690 -82.3190 56° Northeast 549 632 31,000  Level FlightAware
08:01PM 46.3180 -82.2150 56° Northeast 549 632 31,000  Level FlightAware
08:02PM 46.3660 -82.1120 56° Northeast 549 632 31,000  Level FlightAware
08:03PM 46.4450 -81.9390 56° Northeast 548 631 31,000  Level FlightAware
08:04PM 46.5030 -81.8150 56° Northeast 548 631 31,000  Level FlightAware
08:04PM 46.5510 -81.7110 56° Northeast 548 631 31,000  Level FlightAware
08:05PM 46.5990 -81.6070 56° Northeast 548 631 31,000  Level FlightAware
08:06PM 46.6590 -81.4770 56° Northeast 548 631 31,000  Level FlightAware
08:06PM 46.7080 -81.3730 55° Northeast 548 631 31,000  Level FlightAware
08:07PM 46.7560 -81.2690 56° Northeast 548 631 31,000  Level FlightAware
08:08PM 46.8040 -81.1640 56° Northeast 548 631 31,000  Level FlightAware
08:08PM 46.8520 -81.0600 56° Northeast 548 631 31,000  Level FlightAware
08:09PM 46.9120 -80.9290 56° Northeast 548 631 31,000  Level FlightAware
08:10PM 46.9610 -80.8240 56° Northeast 548 631 31,000  Level FlightAware
08:11PM 47.0090 -80.7200 56° Northeast 548 631 31,000  Level FlightAware
08:11PM 47.0570 -80.6150 56° Northeast 548 631 31,000  Level FlightAware
08:12PM 47.1050 -80.5100 56° Northeast 548 631 31,000  Level FlightAware
08:13PM 47.1530 -80.4050 56° Northeast 548 631 31,000  Level FlightAware
08:13PM 47.3000 -79.9000 56° Northeast 560 644 31,000  Level Toronto Center
08:14PM 47.3833 -79.7000 58° Northeast 570 656 31,000  Level Toronto Center
08:15PM 47.4667 -79.5000 58° Northeast 580 667 31,000  Level Toronto Center
08:16PM 47.5500 -79.3167 56° Northeast 580 667 31,000  Level Toronto Center
08:22PM 48.0500 -78.1690 56° Northeast 31,000  Level FlightAware
08:22PM 48.0880 -78.0720 60° Northeast 608 700 31,000  Level FlightAware
08:23PM 48.1300 -77.9640 60° Northeast 609 701 31,000  Level FlightAware
08:24PM 48.1960 -77.8000 59° Northeast 611 703 31,000  Level FlightAware
08:24PM 48.2700 -77.7050 40° Northeast 651 749 31,000  Level FlightAware
08:25PM 48.3610 -77.5820 42° Northeast 651 749 31,000  Level FlightAware
08:26PM 48.4370 -77.4790 42° Northeast 651 749 31,000  Level FlightAware
08:27PM 48.5320 -77.3490 42° Northeast 651 749 31,000  Level FlightAware
08:27PM 48.6080 -77.2460 42° Northeast 651 749 31,000  Level FlightAware
08:28PM 48.6840 -77.1420 42° Northeast 651 749 31,000  Level FlightAware
08:29PM 48.7600 -77.0380 42° Northeast 651 749 31,000  Level FlightAware
08:29PM 48.8360 -76.9340 42° Northeast 651 749 31,000  Level FlightAware
08:30PM 48.9320 -76.8040 42° Northeast 651 749 31,000  Level FlightAware
08:31PM 49.0080 -76.6990 42° Northeast 651 749 31,000  Level FlightAware
08:31PM 49.0840 -76.5950 42° Northeast 651 749 31,000  Level FlightAware
08:32PM 49.1600 -76.4900 42° Northeast 651 749 31,000  Level FlightAware
08:33PM 49.2360 -76.3850 42° Northeast 651 749 31,000  Level FlightAware
08:34PM 49.3310 -76.2540 42° Northeast 651 749 31,000  Level FlightAware
08:34PM 49.4070 -76.1490 42° Northeast 651 749 31,000 1,020 Level FlightAware
08:35PM 49.7167 -75.6500 42° Northeast 630 725 33,000 900 Climbing Montreal Center
08:36PM 49.8333 -75.4667 45° Northeast 620 713 33,000  Level Montreal Center
08:37PM 49.9500 -75.2667 48° Northeast 620 713 33,000  Level Montreal Center
08:38PM 50.0667 -75.0667 48° Northeast 610 702 33,000  Level Montreal Center
08:39PM 50.2000 -74.8833 41° Northeast 620 713 33,000  Level Montreal Center
08:40PM 50.3167 -74.6667 50° Northeast 620 713 33,000  Level Montreal Center
08:41PM 50.4333 -74.4833 45° Northeast 620 713 33,000  Level Montreal Center
08:42PM 50.5500 -74.3000 45° Northeast 620 713 33,000  Level Montreal Center
08:43PM 50.6667 -74.1000 47° Northeast 620 713 33,000  Level Montreal Center
08:44PM 50.8000 -73.8833 46° Northeast 610 702 33,000  Level Montreal Center
08:45PM 50.9167 -73.7000 45° Northeast 600 690 33,000  Level Montreal Center
08:46PM 51.0167 -73.5000 51° Northeast 600 690 33,000  Level Montreal Center
08:47PM 51.1333 -73.3167 45° Northeast 590 679 33,000  Level Montreal Center
08:48PM 51.2333 -73.1167 51° Northeast 590 679 33,000  Level Montreal Center
08:49PM 51.3500 -72.9167 47° Northeast 590 679 33,000  Level Montreal Center
08:50PM 51.4667 -72.7167 47° Northeast 600 690 33,000  Level Montreal Center
08:51PM 51.5833 -72.5167 47° Northeast 600 690 33,000  Level Montreal Center
08:52PM 51.7000 -72.3167 47° Northeast 610 702 33,000  Level Montreal Center
08:53PM 51.8167 -72.1000 49° Northeast 610 702 33,000  Level Montreal Center
08:54PM 51.9167 -71.9000 51° Northeast 610 702 33,000  Level Montreal Center
08:55PM 52.0333 -71.7000 46° Northeast 600 690 33,000  Level Montreal Center
08:56PM 52.1500 -71.4833 49° Northeast 600 690 33,000  Level Montreal Center
08:57PM 52.2500 -71.2833 51° Northeast 590 679 33,000  Level Montreal Center
08:58PM 52.3667 -71.0833 46° Northeast 590 679 33,000  Level Montreal Center
08:59PM 52.4667 -70.8833 51° Northeast 590 679 33,000  Level Montreal Center
09:00PM 52.5833 -70.6667 48° Northeast 590 679 33,000  Level Montreal Center
09:01PM 52.6833 -70.4667 50° Northeast 590 679 33,000  Level Montreal Center
09:02PM 52.7833 -70.2500 53° Northeast 590 679 33,000  Level Montreal Center
09:03PM 52.8833 -70.0500 50° Northeast 590 679 33,000  Level Montreal Center
09:04PM 53.0000 -69.8333 48° Northeast 590 679 33,000  Level Montreal Center
09:05PM 53.1000 -69.6500 48° Northeast 590 679 33,000  Level Montreal Center
09:06PM 53.1667 -69.5500 42° Northeast 600 690 33,000  Level Gander Center
09:07PM 53.2833 -69.3500 46° Northeast 590 679 33,000  Level Gander Center
09:07PM 53.3167 -69.2167 67° East 590 679 33,000  Level Montreal Center
09:08PM 53.4167 -68.9833 54° Northeast 590 679 33,000  Level Montreal Center
09:09PM 53.5333 -68.7667 48° Northeast 590 679 33,000  Level Montreal Center
09:10PM 53.6333 -68.5667 50° Northeast 580 667 33,000  Level Montreal Center
09:11PM 53.7333 -68.3500 52° Northeast 570 656 33,000  Level Montreal Center
09:12PM 53.7833 -68.2833 38° Northeast 570 656 33,000  Level Gander Center
09:13PM 53.9000 -68.0667 48° Northeast 570 656 33,000  Level Gander Center
09:13PM 53.9333 -67.9500 64° Northeast 560 644 33,000  Level Montreal Center
09:14PM 54.0167 -67.7333 57° Northeast 560 644 33,000  Level Montreal Center
09:15PM 54.1167 -67.5333 49° Northeast 550 633 33,000  Level Montreal Center
09:16PM 54.2000 -67.3167 57° Northeast 550 633 33,000  Level Montreal Center
09:17PM 54.3167 -67.1167 45° Northeast 550 633 33,000  Level Montreal Center
09:18PM 54.4000 -66.9000 56° Northeast 550 633 33,000  Level Montreal Center
09:19PM 54.5000 -66.7000 49° Northeast 560 644 33,000  Level Montreal Center
09:20PM 54.5833 -66.4667 58° Northeast 560 644 33,000 240 Level Montreal Center
09:21PM 54.6500 -66.3667 41° Northeast 570 656 33,400 840 Climbing Gander Center
09:22PM 54.7500 -66.1500 51° Northeast 580 667 34,400 780 Climbing Gander Center
09:23PM 54.8500 -65.9333 51° Northeast 580 667 35,000 420 Climbing Gander Center
09:23PM 54.8833 -65.8167 64° Northeast 570 656 35,000  Level Montreal Center
09:24PM 54.9667 -65.5833 58° Northeast 570 656 35,000  Level Montreal Center
09:25PM 55.0667 -65.3833 49° Northeast 580 667 35,000  Level Montreal Center
09:26PM 55.1667 -65.1167 57° Northeast 580 667 35,000  Level Montreal Center
09:27PM 55.2667 -64.9167 49° Northeast 570 656 35,000  Level Montreal Center
09:28PM 55.3167 -64.8000 53° Northeast 570 656 35,000  Level Gander Center
09:29PM 55.4000 -64.6000 54° Northeast 560 644 35,000  Level Gander Center
09:29PM 55.4500 -64.4667 56° Northeast 570 656 35,000  Level Montreal Center
09:30PM 55.5500 -64.2333 53° Northeast 560 644 35,000  Level Montreal Center
09:31PM 55.6167 -64.0000 63° Northeast 560 644 35,000  Level Montreal Center
09:32PM 55.6667 -63.9167 43° Northeast 560 644 35,000  Level Gander Center
09:32PM 55.7167 -63.7500 62° Northeast 560 644 35,000  Level Montreal Center
09:33PM 55.8000 -63.5167 57° Northeast 570 656 35,000  Level Montreal Center
09:34PM 55.8500 -63.4167 48° Northeast 580 667 35,000  Level Gander Center
09:35PM 55.9167 -63.1833 63° Northeast 580 667 35,000  Level Gander Center
09:36PM 56.0000 -62.9500 57° Northeast 570 656 35,000  Level Gander Center
09:37PM 56.1000 -62.6833 56° Northeast 580 667 35,000  Level Gander Center
09:37PM 56.1333 -62.5167 70° East 570 656 35,000  Level Montreal Center
09:38PM 56.1833 -62.4500 37° Northeast 580 667 35,000  Level Gander Center
09:38PM 56.2000 -62.3167 77° East 550 633 35,000  Level Montreal Center
09:39PM 56.3000 -62.1000 50° Northeast 560 644 35,000  Level Montreal Center
09:40PM 56.3333 -61.9667 66° East 570 656 35,000  Level Gander Center
09:41PM 56.4167 -61.7000 60° Northeast 580 667 35,000  Level Gander Center
09:42PM 56.5000 -61.4667 57° Northeast 570 656 35,000  Level Gander Center
09:43PM 56.5833 -61.1833 62° Northeast 580 667 35,000  Level Gander Center
09:44PM 56.6667 -60.9500 57° Northeast 580 667 35,000  Level Gander Center
09:45PM 56.7500 -60.7000 59° Northeast 590 679 35,000  Level Gander Center
09:46PM 56.8333 -60.4333 60° Northeast 590 679 35,000  Level Gander Center
09:47PM 56.9167 -60.1833 59° Northeast 600 690 35,000  Level Gander Center
09:48PM 57.0000 -59.9000 62° Northeast 580 667 35,000  Level Gander Center
09:49PM 57.0667 -59.6500 64° Northeast 590 679 35,000  Level Gander Center
09:50PM 57.1333 -59.4000 64° Northeast 590 679 35,000  Level Gander Center
09:51PM 57.2167 -59.1333 60° Northeast 590 679 35,000  Level Gander Center
09:52PM 57.2500 -58.8167 79° East 600 690 35,000  Level Gander Center
09:53PM 57.2833 -58.5000 79° East 610 702 35,000  Level Gander Center
09:54PM 57.3167 -58.2000 78° East 610 702 35,000  Level Gander Center
09:55PM 57.3667 -57.8833 74° East 610 702 35,000  Level Gander Center
09:56PM 57.4000 -57.5667 79° East 620 713 35,000  Level Gander Center
09:57PM 57.4167 -57.2500 84° East 610 702 35,000  Level Gander Center
09:58PM 57.4833 -56.9000 70° East 620 713 35,000  Level Gander Center
09:59PM 57.4833 -56.6333 90° East 620 713 35,000  Level Gander Center
10:00PM 57.5333 -56.3167 73° East 620 713 35,000  Level Gander Center
10:01PM 57.5500 -56.0000 84° East 620 713 35,000  Level Gander Center
10:02PM 57.5833 -55.6833 79° East 620 713 35,000  Level Gander Center
10:03PM 57.6167 -55.3667 79° East 620 713 35,000  Level Gander Center
10:04PM 57.6333 -55.0500 84° East 620 713 35,000  Level Gander Center
10:05PM 57.6500 -54.7333 84° East 620 713 35,000  Level Gander Center
10:07PM 57.7085 -54.3413 81° East  Level FlightAware Approximate
10:14PM 57.8516 -52.4893 81° East  Level FlightAware Approximate
10:15PM 57.8698 -52.2236 83° East  Level FlightAware Approximate
10:16PM 57.8875 -51.9576 83° East  Level FlightAware Approximate
10:17PM 57.9046 -51.6913 83° East  Level FlightAware Approximate
10:18PM 57.9211 -51.4248 83° East  Level FlightAware Approximate
10:19PM 57.9371 -51.1581 83° East  Level FlightAware Approximate
10:20PM 57.9526 -50.8911 84° East  Level FlightAware Approximate
10:21PM 57.9675 -50.6239 84° East  Level FlightAware Approximate
10:22PM 57.9818 -50.3565 84° East  Level FlightAware Approximate
10:23PM 57.9956 -50.0889 84° East  Level FlightAware Approximate
10:24PM 58.0069 -49.8208 86° East  Level FlightAware Approximate
10:25PM 58.0168 -49.5523 86° East  Level FlightAware Approximate
10:26PM 58.0261 -49.2838 86° East  Level FlightAware Approximate
10:27PM 58.0349 -49.0151 86° East  Level FlightAware Approximate
10:28PM 58.0431 -48.7463 87° East  Level FlightAware Approximate
10:29PM 58.0507 -48.4773 87° East  Level FlightAware Approximate
10:30PM 58.0578 -48.2083 87° East  Level FlightAware Approximate
10:31PM 58.0643 -47.9392 87° East  Level FlightAware Approximate
10:32PM 58.0702 -47.6699 88° East  Level FlightAware Approximate
10:33PM 58.0755 -47.4006 88° East  Level FlightAware Approximate
10:34PM 58.0803 -47.1312 88° East  Level FlightAware Approximate
10:35PM 58.0845 -46.8617 88° East  Level FlightAware Approximate
10:36PM 58.0882 -46.5922 88° East  Level FlightAware Approximate
10:37PM 58.0913 -46.3226 89° East  Level FlightAware Approximate
10:38PM 58.0938 -46.0530 89° East  Level FlightAware Approximate
10:39PM 58.0957 -45.7833 89° East  Level FlightAware Approximate
10:40PM 58.0971 -45.5136 89° East  Level FlightAware Approximate
10:41PM 58.0979 -45.2439 90° East  Level FlightAware Approximate
10:42PM 58.0981 -44.9742 90° East  Level FlightAware Approximate
10:43PM 58.0978 -44.7045 90° East  Level FlightAware Approximate
10:44PM 58.0969 -44.4348 90° East  Level FlightAware Approximate
10:45PM 58.0954 -44.1651 90° East  Level FlightAware Approximate
10:46PM 58.0933 -43.8955 91° East  Level FlightAware Approximate
10:47PM 58.0907 -43.6259 91° East  Level FlightAware Approximate
10:48PM 58.0875 -43.3563 91° East  Level FlightAware Approximate
10:49PM 58.0838 -43.0868 91° East  Level FlightAware Approximate
10:50PM 58.0794 -42.8173 92° East  Level FlightAware Approximate
10:51PM 58.0745 -42.5479 92° East  Level FlightAware Approximate
10:52PM 58.0691 -42.2786 92° East  Level FlightAware Approximate
10:53PM 58.0630 -42.0094 92° East  Level FlightAware Approximate
10:54PM 58.0564 -41.7403 93° East  Level FlightAware Approximate
10:55PM 58.0493 -41.4712 93° East  Level FlightAware Approximate
10:56PM 58.0416 -41.2023 93° East  Level FlightAware Approximate
10:57PM 58.0333 -40.9335 93° East  Level FlightAware Approximate
10:58PM 58.0244 -40.6649 93° East  Level FlightAware Approximate
10:59PM 58.0150 -40.3963 94° East  Level FlightAware Approximate
11:00PM 58.0050 -40.1280 94° East  Level FlightAware Approximate
11:01PM 58.0054 -39.8597 86° East  Level FlightAware Approximate
11:02PM 58.0154 -39.5913 86° East  Level FlightAware Approximate
11:03PM 58.0248 -39.3228 86° East  Level FlightAware Approximate
11:04PM 58.0336 -39.0541 86° East  Level FlightAware Approximate
11:05PM 58.0419 -38.7853 87° East  Level FlightAware Approximate
11:06PM 58.0496 -38.5164 87° East  Level FlightAware Approximate
11:07PM 58.0568 -38.2473 87° East  Level FlightAware Approximate
11:08PM 58.0633 -37.9782 87° East  Level FlightAware Approximate
11:09PM 58.0693 -37.7090 87° East  Level FlightAware Approximate
11:10PM 58.0748 -37.4397 88° East  Level FlightAware Approximate
11:11PM 58.0796 -37.1703 88° East  Level FlightAware Approximate
11:12PM 58.0839 -36.9008 88° East  Level FlightAware Approximate
11:13PM 58.0877 -36.6313 88° East  Level FlightAware Approximate
11:14PM 58.0908 -36.3617 89° East  Level FlightAware Approximate
11:15PM 58.0934 -36.0921 89° East  Level FlightAware Approximate
11:16PM 58.0954 -35.8224 89° East  Level FlightAware Approximate
11:17PM 58.0969 -35.5528 89° East  Level FlightAware Approximate
11:18PM 58.0978 -35.2831 90° East  Level FlightAware Approximate
11:19PM 58.0981 -35.0134 90° East  Level FlightAware Approximate
11:20PM 58.0978 -34.7436 90° East  Level FlightAware Approximate
11:21PM 58.0970 -34.4739 90° East  Level FlightAware Approximate
11:22PM 58.0956 -34.2043 90° East  Level FlightAware Approximate
11:23PM 58.0936 -33.9346 91° East  Level FlightAware Approximate
11:24PM 58.0911 -33.6650 91° East  Level FlightAware Approximate
11:25PM 58.0880 -33.3954 91° East  Level FlightAware Approximate
11:26PM 58.0843 -33.1259 91° East  Level FlightAware Approximate
11:27PM 58.0801 -32.8564 92° East  Level FlightAware Approximate
11:28PM 58.0753 -32.5870 92° East  Level FlightAware Approximate
11:29PM 58.0699 -32.3177 92° East  Level FlightAware Approximate
11:30PM 58.0640 -32.0484 92° East  Level FlightAware Approximate
11:31PM 58.0574 -31.7793 93° East  Level FlightAware Approximate
11:32PM 58.0504 -31.5103 93° East  Level FlightAware Approximate
11:33PM 58.0427 -31.2413 93° East  Level FlightAware Approximate
11:34PM 58.0345 -30.9725 93° East  Level FlightAware Approximate
11:35PM 58.0257 -30.7038 93° East  Level FlightAware Approximate
11:36PM 58.0164 -30.4353 94° East  Level FlightAware Approximate
11:37PM 58.0065 -30.1669 94° East  Level FlightAware Approximate
11:38PM 58.0035 -29.8985 86° East  Level FlightAware Approximate
11:39PM 58.0122 -29.6300 86° East  Level FlightAware Approximate
11:40PM 58.0205 -29.3614 87° East  Level FlightAware Approximate
11:41PM 58.0281 -29.0926 87° East  Level FlightAware Approximate
11:42PM 58.0352 -28.8237 87° East  Level FlightAware Approximate
11:43PM 58.0417 -28.5548 87° East  Level FlightAware Approximate
11:44PM 58.0476 -28.2857 87° East  Level FlightAware Approximate
11:45PM 58.0530 -28.0165 88° East  Level FlightAware Approximate
11:46PM 58.0578 -27.7473 88° East  Level FlightAware Approximate
11:47PM 58.0621 -27.4780 88° East  Level FlightAware Approximate
11:48PM 58.0657 -27.2086 88° East  Level FlightAware Approximate
11:49PM 58.0701 -26.9393 88° East  Level FlightAware Approximate
11:50PM 58.0745 -26.6699 88° East  Level FlightAware Approximate
11:51PM 58.0782 -26.4004 88° East  Level FlightAware Approximate
11:52PM 58.0814 -26.1310 89° East  Level FlightAware Approximate
11:53PM 58.0840 -25.8614 89° East  Level FlightAware Approximate
11:54PM 58.0861 -25.5918 89° East  Level FlightAware Approximate
11:55PM 58.0875 -25.3222 89° East  Level FlightAware Approximate
11:56PM 58.0885 -25.0526 90° East  Level FlightAware Approximate
11:57PM 58.0888 -24.7829 90° East  Level FlightAware Approximate
11:58PM 58.0886 -24.5133 90° East  Level FlightAware Approximate
11:59PM 58.0878 -24.2437 90° East  Level FlightAware Approximate
12:00AM 58.0864 -23.9741 90° East  Level FlightAware Approximate
12:01AM 58.0844 -23.7045 91° East  Level FlightAware Approximate
12:02AM 58.0819 -23.4349 91° East  Level FlightAware Approximate
12:03AM 58.0789 -23.1654 91° East  Level FlightAware Approximate
12:04AM 58.0752 -22.8960 91° East  Level FlightAware Approximate
12:05AM 58.0710 -22.6266 92° East  Level FlightAware Approximate
12:06AM 58.0662 -22.3572 92° East  Level FlightAware Approximate
12:07AM 58.0609 -22.0880 92° East  Level FlightAware Approximate
12:08AM 58.0550 -21.8188 92° East  Level FlightAware Approximate
12:09AM 58.0485 -21.5497 92° East  Level FlightAware Approximate
12:10AM 58.0414 -21.2807 93° East  Level FlightAware Approximate
12:11AM 58.0338 -21.0119 93° East  Level FlightAware Approximate
12:12AM 58.0257 -20.7447 93° East  Level FlightAware Approximate
12:13AM 58.0170 -20.4776 93° East  Level FlightAware Approximate
12:14AM 58.0077 -20.2107 94° East  Level FlightAware Approximate
12:15AM 57.9957 -19.9444 98° East  Level FlightAware Approximate
12:16AM 57.9748 -19.6800 98° East  Level FlightAware Approximate
12:17AM 57.9534 -19.4160 99° East  Level FlightAware Approximate
12:18AM 57.9314 -19.1522 99° East  Level FlightAware Approximate
12:19AM 57.9089 -18.8888 99° East  Level FlightAware Approximate
12:20AM 57.8859 -18.6257 99° East  Level FlightAware Approximate
12:21AM 57.8623 -18.3630 99° East  Level FlightAware Approximate
12:22AM 57.8381 -18.1006 100° East  Level FlightAware Approximate
12:23AM 57.8134 -17.8386 100° East  Level FlightAware Approximate
12:24AM 57.7882 -17.5769 100° East  Level FlightAware Approximate
12:25AM 57.7625 -17.3156 100° East  Level FlightAware Approximate
12:26AM 57.7362 -17.0547 101° East  Level FlightAware Approximate
12:27AM 57.7094 -16.7941 101° East  Level FlightAware Approximate
12:28AM 57.6820 -16.5340 101° East  Level FlightAware Approximate
12:29AM 57.6541 -16.2742 101° East  Level FlightAware Approximate
12:30AM 57.6257 -16.0149 101° East  Level FlightAware Approximate
12:31AM 57.5967 -15.7559 102° East  Level FlightAware Approximate
12:32AM 57.5672 -15.4974 102° East  Level FlightAware Approximate
12:33AM 57.5372 -15.2393 102° East  Level FlightAware Approximate
12:34AM 57.5067 -14.9816 102° East  Level FlightAware Approximate
12:35AM 57.4756 -14.7244 103° East  Level FlightAware Approximate
12:36AM 57.4440 -14.4676 103° East  Level FlightAware Approximate
12:37AM 57.4119 -14.2112 103° East  Level FlightAware Approximate
12:38AM 57.3793 -13.9553 103° East  Level FlightAware Approximate
12:39AM 57.3461 -13.6999 103° East  Level FlightAware Approximate
12:40AM 57.3125 -13.4449 104° East  Level FlightAware Approximate
12:40AM 56.7550 -12.0340 104° East 499 574 37,000  Level FlightAware
12:40AM 56.7410 -11.9070 101° East 499 574 37,000  Level FlightAware
12:41AM 57.2783 -13.1904 104° East  Level FlightAware Approximate
12:41AM 56.7170 -11.6940 102° East 497 572 37,000  Level FlightAware
12:42AM 56.6970 -11.5140 101° East 495 570 37,000  Level FlightAware
12:43AM 56.6780 -11.3520 102° East 494 568 37,000  Level FlightAware
12:43AM 56.6570 -11.1700 102° East 491 565 37,000  Level FlightAware
12:44AM 56.6380 -11.0110 102° East 490 564 37,000  Level FlightAware
12:45AM 56.6160 -10.8260 102° East 489 563 37,000  Level FlightAware
12:45AM 56.5970 -10.6630 102° East 488 562 37,000  Level FlightAware
12:46AM 56.5770 -10.5020 103° East 488 562 37,000  Level FlightAware
12:47AM 56.5550 -10.3230 103° East 487 560 37,000  Level FlightAware
12:47AM 56.5380 -10.1820 102° East 488 562 37,000  Level FlightAware
12:48AM 56.5130 -10.0060 104° East 485 558 37,000  Level FlightAware
12:50AM 56.4460 -9.5920 106° East 483 556 37,000  Level FlightAware
12:51AM 56.4010 -9.3200 107° East 483 556 37,000  Level FlightAware
12:52AM 56.3540 -9.0340 106° East 483 556 37,000 -1,020 Level FlightAware
12:53AM 56.3283 -8.9757 106° East 454 522 35,500 -2,760 Descending FlightAware UK
12:53AM 56.3162 -8.9065 107° East 454 522 35,500  Level FlightAware UK
12:53AM 56.3044 -8.8370 107° East 454 522 35,500 2,400 Level FlightAware UK
12:54AM 56.3090 -8.7640 107° East 483 556 37,000 -180 Climbing FlightAware
12:54AM 56.2809 -8.6969 107° East 454 522 35,400 -2,760 Descending FlightAware UK
12:54AM 56.2691 -8.6275 107° East 454 522 35,400 3,420 Level FlightAware UK
12:54AM 56.2800 -8.5870 107° East 483 556 37,000 120 Climbing FlightAware
12:55AM 56.2451 -8.4893 107° East 454 522 35,500  Descending FlightAware UK
12:55AM 56.2530 -8.4330 107° East 483 556 37,000  Climbing FlightAware
12:55AM 56.2211 -8.3509 107° East 454 522 35,500 -2,280 Descending FlightAware UK
12:56AM 56.2091 -8.2816 107° East 454 522 35,500 4,980 Level FlightAware UK
12:56AM 56.2270 -8.2760 107° East 483 556 37,000  Climbing FlightAware
12:56AM 56.1971 -8.2120 107° East 454 522 35,500 -2,520 Descending FlightAware UK
12:56AM 56.1850 -8.1425 107° East 452 520 35,500 3,300 Level FlightAware UK
12:56AM 56.1970 -8.1030 107° East 485 558 37,000  Climbing FlightAware
12:57AM 56.1689 -8.0503 107° East 452 520 35,500 -2,340 Descending FlightAware UK
12:57AM 56.1526 -7.9584 108° East 450 518 35,500 3,600 Level FlightAware UK
12:57AM 56.1700 -7.9480 108° East 486 559 37,000 -300 Climbing FlightAware
12:58AM 56.1360 -7.8666 108° East 452 520 35,400 -2,220 Descending FlightAware UK
12:58AM 56.1235 -7.7977 108° East 452 520 35,500 4,320 Climbing FlightAware UK
12:58AM 56.1400 -7.7750 108° East 487 560 37,000  Climbing FlightAware
12:58AM 56.1069 -7.7059 108° East 454 522 35,500 -2,400 Descending FlightAware UK
12:59AM 56.0945 -7.6370 108° East 456 525 35,500 4,500 Level FlightAware UK
12:59AM 56.1130 -7.6220 108° East 486 559 37,000  Climbing FlightAware
12:59AM 56.0820 -7.5682 108° East 456 525 35,500 -2,700 Descending FlightAware UK
12:59AM 56.0695 -7.4993 108° East 454 522 35,500 3,720 Level FlightAware UK
12:59AM 56.0850 -7.4630 108° East 487 560 37,000  Climbing FlightAware
01:00AM 56.0528 -7.4068 108° East 454 522 35,500 -2,520 Descending FlightAware UK
01:00AM 56.0401 -7.3382 108° East 454 522 35,500 3,300 Level FlightAware UK
01:00AM 56.0540 -7.2920 108° East 487 560 37,000  Climbing FlightAware
01:00AM 56.0232 -7.2466 108° East 454 522 35,500 -2,340 Descending FlightAware UK
01:01AM 56.0064 -7.1551 108° East 454 522 35,500 3,600 Level FlightAware UK
01:01AM 56.0260 -7.1380 108° East 484 557 37,000  Climbing FlightAware
01:01AM 55.9937 -7.0866 108° East 454 522 35,500 -2,580 Descending FlightAware UK
01:01AM 55.9810 -7.0181 108° East 454 522 35,500 3,180 Level FlightAware UK
01:01AM 55.9950 -6.9660 108° East 487 560 37,000  Climbing FlightAware
01:02AM 55.9601 -6.9029 108° East 456 525 35,500 -2,400 Descending FlightAware UK
01:02AM 55.9480 -6.8350 108° East 456 525 35,500 4,500 Level FlightAware UK
01:02AM 55.9680 -6.8120 108° East 487 560 37,000  Climbing FlightAware
01:02AM 55.9354 -6.7656 108° East 458 527 35,500 -2,700 Descending FlightAware UK
01:03AM 55.9231 -6.6970 108° East 458 527 35,500 3,720 Level FlightAware UK
01:03AM 55.9410 -6.6570 108° East 486 559 37,000  Climbing FlightAware
01:03AM 55.8982 -6.5602 108° East 456 525 35,500  Descending FlightAware UK
01:03AM 55.9100 -6.4860 108° East 486 559 37,000  Climbing FlightAware
01:04AM 55.8772 -6.4466 108° East 454 522 35,500 -2,760 Descending FlightAware UK
01:04AM 55.8645 -6.3786 108° East 454 522 35,500 3,600 Level FlightAware UK
01:04AM 55.8820 -6.3330 108° East 483 556 37,000  Climbing FlightAware
01:04AM 55.8469 -6.2875 108° East 452 520 35,500 -2,760 Descending FlightAware UK
01:05AM 55.8334 -6.2209 110° East 452 520 35,400 3,180 Descending FlightAware UK
01:05AM 55.8500 -6.1660 110° East 486 559 37,000  Climbing FlightAware
01:05AM 55.8103 -6.1080 110° East 452 520 35,400  Descending FlightAware UK
01:05AM 55.8230 -6.0340 110° East 485 558 37,000  Climbing FlightAware
01:06AM 55.7964 -6.0408 110° East 454 522 35,400 -6,420 Descending FlightAware UK
01:06AM 55.7872 -5.9961 110° East 452 520 35,400  Level FlightAware UK
01:06AM 55.7735 -5.9288 110° East 454 522 35,400 3,180 Level FlightAware UK
01:06AM 55.7900 -5.8670 110° East 487 560 37,000  Climbing FlightAware
01:07AM 55.7411 -5.7718 110° East 452 520 35,400  Descending FlightAware UK
01:07AM 55.7560 -5.6980 110° East 488 562 37,000  Climbing FlightAware
01:07AM 55.7180 -5.6595 110° East 452 520 35,400 -2,940 Descending FlightAware UK
01:08AM 55.7043 -5.5920 110° East 454 522 35,400 3,840 Level FlightAware UK
01:08AM 55.7260 -5.5480 110° East 488 562 37,000  Climbing FlightAware
01:08AM 55.6858 -5.5013 110° East 456 525 35,400 -2,520 Descending FlightAware UK
01:08AM 55.6720 -5.4338 110° East 456 525 35,500 4,320 Climbing FlightAware UK
01:08AM 55.6960 -5.3980 110° East 489 563 37,000 -300 Climbing FlightAware
01:09AM 55.6538 -5.3437 110° East 456 525 35,400  Descending FlightAware UK
01:09AM 55.6730 -5.2850 110° East 489 563 37,000  Climbing FlightAware
01:09AM 55.6307 -5.2313 110° East 454 522 35,400 -2,220 Descending FlightAware UK
01:10AM 55.6120 -5.1416 110° East 454 522 35,400 3,840 Level FlightAware UK
01:10AM 55.6400 -5.1180 110° East 488 562 37,000  Climbing FlightAware
01:10AM 55.5981 -5.0744 110° East 456 525 35,400 -2,580 Descending FlightAware UK
01:10AM 55.5841 -5.0073 110° East 454 522 35,500 4,140 Climbing FlightAware UK
01:10AM 55.6090 -4.9670 110° East 487 560 37,000 -300 Climbing FlightAware
01:11AM 55.5656 -4.9184 110° East 454 522 35,400 -2,640 Descending FlightAware UK
01:11AM 55.5514 -4.8504 110° East 454 522 35,400 4,320 Level FlightAware UK
01:11AM 55.5790 -4.8190 110° East 487 560 37,000 300 Climbing FlightAware
01:11AM 55.5375 -4.7832 110° East 454 522 35,500 -2,520 Descending FlightAware UK
01:12AM 55.5186 -4.6936 110° East 454 522 35,400 3,000 Descending FlightAware UK
01:12AM 55.5430 -4.6480 110° East 488 562 37,000  Climbing FlightAware
01:12AM 55.4950 -4.5814 110° East 454 522 35,400  Descending FlightAware UK
01:12AM 55.5130 -4.5000 110° East 489 563 37,000  Climbing FlightAware
01:12AM 55.4806 -4.5134 110° East 456 525 35,400 -4,800 Descending FlightAware UK
01:13AM 55.4663 -4.4464 110° East 456 525 35,400  Level FlightAware UK
01:13AM 55.4519 -4.3793 111° Southeast 454 522 35,400 4,800 Level FlightAware UK
01:13AM 55.4810 -4.3490 111° Southeast 488 562 37,000 300 Climbing FlightAware
01:13AM 55.4375 -4.3125 111° Southeast 462 532 35,500 -2,880 Descending FlightAware UK
01:14AM 55.4230 -4.2446 111° Southeast 460 529 35,400 3,060 Descending FlightAware UK
01:14AM 55.4450 -4.1810 111° Southeast 488 562 37,000  Climbing FlightAware
01:14AM 55.3988 -4.1340 111° Southeast 460 529 35,400 -2,640 Descending FlightAware UK
01:14AM 55.3841 -4.0665 111° Southeast 458 527 35,400 4,560 Level FlightAware UK
01:14AM 55.4130 -4.0280 111° Southeast 487 560 37,000  Climbing FlightAware
01:15AM 55.3649 -3.9784 111° Southeast 460 529 35,400 -2,160 Descending FlightAware UK
01:15AM 55.3453 -3.8900 111° Southeast 456 525 35,400 3,960 Level FlightAware UK
01:15AM 55.3770 -3.8620 111° Southeast 486 559 37,000 300 Climbing FlightAware
01:15AM 55.3309 -3.8236 111° Southeast 456 525 35,500 -2,700 Descending FlightAware UK
01:16AM 55.3162 -3.7569 111° Southeast 456 525 35,400 4,080 Descending FlightAware UK
01:16AM 55.3450 -3.7170 111° Southeast 488 562 37,000  Climbing FlightAware
01:16AM 55.2920 -3.6466 111° Southeast 456 525 35,400  Descending FlightAware UK
01:17AM 55.3090 -3.5480 111° Southeast 487 560 37,000  Climbing FlightAware
01:17AM 55.2627 -3.5148 111° Southeast 456 525 35,400 -2,580 Descending FlightAware UK
01:17AM 55.2481 -3.4483 111° Southeast 456 525 35,500 4,140 Climbing FlightAware UK
01:17AM 55.2760 -3.3980 111° Southeast 483 556 37,000  Climbing FlightAware
01:18AM 55.2289 -3.3616 111° Southeast 454 522 35,500 -2,460 Descending FlightAware UK
01:18AM 55.2143 -3.2950 111° Southeast 452 520 35,500 4,260 Level FlightAware UK
01:18AM 55.2450 -3.2570 111° Southeast 486 559 37,000  Climbing FlightAware
01:18AM 55.1996 -3.2287 111° Southeast 454 522 35,500 -2,760 Descending FlightAware UK
01:18AM 55.1849 -3.1632 111° Southeast 450 518 35,500 3,000 Level FlightAware UK
01:19AM 55.2090 -3.0920 111° Southeast 486 559 37,000 -240 Climbing FlightAware
01:19AM 55.1603 -3.0545 111° Southeast 452 520 35,400 -2,520 Descending FlightAware UK
01:19AM 55.1454 -2.9896 112° Southeast 452 520 35,500 4,320 Climbing FlightAware UK
01:19AM 55.1760 -2.9450 112° Southeast 485 558 37,000  Climbing FlightAware
01:20AM 55.1257 -2.9028 112° Southeast 452 520 35,500 -2,400 Descending FlightAware UK
01:20AM 55.1111 -2.8384 112° Southeast 452 520 35,500 3,600 Level FlightAware UK
01:20AM 55.1390 -2.7810 112° Southeast 484 557 37,000  Climbing FlightAware
01:20AM 55.0862 -2.7293 112° Southeast 454 522 35,500  Descending FlightAware UK
01:21AM 55.1100 -2.6550 112° Southeast 485 558 37,000  Climbing FlightAware
01:21AM 55.0712 -2.6643 112° Southeast 454 522 35,500 -5,040 Descending FlightAware UK
01:21AM 55.0613 -2.6210 112° Southeast 454 522 35,500  Level FlightAware UK
01:21AM 55.0465 -2.5568 112° Southeast 454 522 35,500 3,300 Level FlightAware UK
01:21AM 55.0720 -2.4870 112° Southeast 481 554 37,000  Climbing FlightAware
01:22AM 55.0260 -2.4699 112° Southeast 454 522 35,500 -2,760 Descending FlightAware UK
01:22AM 55.0107 -2.4054 112° Southeast 454 522 35,500 3,000 Level FlightAware UK
01:22AM 55.0350 -2.3340 112° Southeast 482 555 37,000  Climbing FlightAware
01:23AM 54.9800 -2.2765 112° Southeast 456 525 35,500  Descending FlightAware UK
01:23AM 55.0000 -2.1830 113° Southeast 484 557 37,000  Climbing FlightAware
01:23AM 54.9645 -2.2115 113° Southeast 456 525 35,500 -6,000 Descending FlightAware UK
01:23AM 54.9543 -2.1685 113° Southeast 458 527 35,500  Level FlightAware UK
01:23AM 54.9390 -2.1042 112° Southeast 460 529 35,500 3,600 Level FlightAware UK
01:23AM 54.9660 -2.0390 112° Southeast 483 556 37,000  Climbing FlightAware
01:24AM 54.9186 -2.0186 112° Southeast 456 525 35,500 -2,580 Descending FlightAware UK
01:24AM 54.9033 -1.9546 113° Southeast 454 522 35,500 3,180 Level FlightAware UK
01:24AM 54.9270 -1.8770 113° Southeast 482 555 37,000  Climbing FlightAware
01:25AM 54.8722 -1.8262 113° Southeast 454 522 35,500  Descending FlightAware UK
01:25AM 54.8920 -1.7330 113° Southeast 482 555 37,000  Climbing FlightAware
01:25AM 54.8463 -1.7192 113° Southeast 454 522 35,500 -2,700 Descending FlightAware UK
01:25AM 54.8310 -1.6562 113° Southeast 454 522 35,500 3,060 Level FlightAware UK
01:26AM 54.8520 -1.5700 113° Southeast 482 555 37,000  Climbing FlightAware
01:26AM 54.7998 -1.5283 113° Southeast 456 525 35,500  Descending FlightAware UK
01:26AM 54.8170 -1.4270 113° Southeast 481 554 37,000  Climbing FlightAware
01:27AM 54.7739 -1.4217 113° Southeast 456 525 35,500 -2,760 Descending FlightAware UK
01:27AM 54.7586 -1.3590 113° Southeast 456 525 35,500 3,600 Level FlightAware UK
01:27AM 54.7830 -1.2860 113° Southeast 479 551 37,000  Climbing FlightAware
01:27AM 54.7379 -1.2746 113° Southeast 454 522 35,500  Descending FlightAware UK
01:28AM 54.7480 -1.1430 113° Southeast 480 552 37,000  Climbing FlightAware
01:28AM 54.7175 -1.1910 113° Southeast 454 522 35,500 -4,740 Descending FlightAware UK
01:28AM 54.7018 -1.1272 113° Southeast 454 522 35,500  Level FlightAware UK
01:28AM 54.6810 -1.0433 113° Southeast 454 522 35,500 3,420 Level FlightAware UK
01:28AM 54.7110 -0.9920 113° Southeast 479 551 37,000  Climbing FlightAware
01:29AM 54.6600 -0.9588 113° Southeast 454 522 35,500 -2,280 Descending FlightAware UK
01:29AM 54.6442 -0.8961 114° Southeast 452 520 35,500 3,900 Level FlightAware UK
01:29AM 54.6700 -0.8300 114° Southeast 478 550 37,000  Climbing FlightAware
01:29AM 54.6230 -0.8119 114° Southeast 454 522 35,500 -2,460 Descending FlightAware UK
01:30AM 54.6074 -0.7499 114° Southeast 454 522 35,500 4,260 Level FlightAware UK
01:30AM 54.6350 -0.6910 114° Southeast 478 550 37,000  Climbing FlightAware
01:30AM 54.5914 -0.6867 114° Southeast 454 522 35,500 -2,760 Descending FlightAware UK
01:30AM 54.5757 -0.6250 114° Southeast 454 522 35,500 3,600 Level FlightAware UK
01:30AM 54.5990 -0.5510 114° Southeast 478 550 37,000  Climbing FlightAware
01:31AM 54.5544 -0.5412 114° Southeast 454 522 35,500 -2,580 Descending FlightAware UK
01:31AM 54.5386 -0.4797 114° Southeast 452 520 35,500 3,180 Level FlightAware UK
01:31AM 54.5590 -0.3960 114° Southeast 478 550 37,000  Climbing FlightAware
01:32AM 54.5117 -0.3755 114° Southeast 452 520 35,500 -2,400 Descending FlightAware UK
01:32AM 54.4955 -0.3136 114° Southeast 452 520 35,500 3,600 Level FlightAware UK
01:32AM 54.5180 -0.2410 114° Southeast 477 549 37,000  Climbing FlightAware
01:32AM 54.4736 -0.2304 114° Southeast 454 522 35,500  Descending FlightAware UK
01:33AM 54.4810 -0.1000 114° Southeast 477 549 37,000  Climbing FlightAware
01:33AM 54.4360 -0.0867 114° Southeast 454 522 35,500 -2,400 Descending FlightAware UK
01:33AM 54.4197 -0.0242 114° Southeast 456 525 35,500 4,260 Level FlightAware UK
01:33AM 54.4450 0.0360 114° Southeast 476 548 37,000  Climbing FlightAware
01:34AM 54.4037 0.0377 114° Southeast 458 527 35,500  Descending FlightAware UK
01:34AM 54.4050 0.1880 114° Southeast 475 547 37,000  Climbing FlightAware
01:34AM 54.3608 0.2027 114° Southeast 456 525 35,500 -2,460 Descending FlightAware UK
01:35AM 54.3447 0.2640 114° Southeast 456 525 35,500 4,260 Level FlightAware UK
01:35AM 54.3690 0.3240 114° Southeast 473 544 37,000  Climbing FlightAware
01:35AM 54.3176 0.3667 114° Southeast 456 525 35,500  Descending FlightAware UK
01:35AM 54.3270 0.4800 114° Southeast 472 543 37,000  Climbing FlightAware
01:36AM 54.2852 0.4886 114° Southeast 458 527 35,500 -2,520 Descending FlightAware UK
01:36AM 54.2688 0.5501 115° Southeast 458 527 35,500 4,080 Level FlightAware UK
01:36AM 54.2910 0.6120 115° Southeast 471 542 37,000  Climbing FlightAware
01:37AM 54.2419 0.6503 115° Southeast 456 525 35,500  Descending FlightAware UK
01:37AM 54.2540 0.7480 115° Southeast 468 539 37,000  Climbing FlightAware
01:37AM 54.2258 0.7099 115° Southeast 456 525 35,500 -5,640 Descending FlightAware UK
01:37AM 54.2147 0.7507 115° Southeast 458 527 35,500  Level FlightAware UK
01:37AM 54.1984 0.8106 115° Southeast 458 527 35,500 3,060 Level FlightAware UK
01:38AM 54.2150 0.8890 115° Southeast 466 536 37,000  Climbing FlightAware
01:38AM 54.1710 0.9108 115° Southeast 458 527 35,500 -2,460 Descending FlightAware UK
01:38AM 54.1545 0.9701 116° Southeast 456 525 35,500 4,260 Level FlightAware UK
01:38AM 54.1760 1.0230 116° Southeast 465 535 37,000  Climbing FlightAware
01:38AM 54.1357 1.0269 116° Southeast 456 525 35,500 -2,760 Descending FlightAware UK
01:39AM 54.1162 1.0836 120° Southeast 454 522 35,500  Level FlightAware UK
01:39AM 54.0959 1.1405 121° Southeast 454 522 35,500 4,080 Level FlightAware UK
01:39AM 54.1140 1.2030 121° Southeast 464 534 37,000  Climbing FlightAware
01:39AM 54.0683 1.2132 121° Southeast 452 520 35,500 -2,400 Descending FlightAware UK
01:40AM 54.0472 1.2679 123° Southeast 454 522 35,500 3,600 Level FlightAware UK
01:40AM 54.0620 1.3350 123° Southeast 463 533 37,000  Climbing FlightAware
01:40AM 54.0191 1.3408 123° Southeast 452 520 35,500  Descending FlightAware UK
01:40AM 54.0210 1.4410 123° Southeast 461 531 37,000  Climbing FlightAware
01:41AM 53.9909 1.4138 123° Southeast 452 520 35,500 -3,600 Descending FlightAware UK
01:41AM 53.9697 1.4686 123° Southeast 450 518 35,500  Level FlightAware UK
01:41AM 53.9490 1.5221 123° Southeast 450 518 35,500 4,500 Level FlightAware UK
01:41AM 53.9690 1.5740 123° Southeast 460 529 37,000  Climbing FlightAware
01:41AM 53.9280 1.5762 123° Southeast 450 518 35,500 -2,700 Descending FlightAware UK
01:42AM 53.9070 1.6310 123° Southeast 452 520 35,500 3,000 Level FlightAware UK
01:42AM 53.9170 1.7060 123° Southeast 459 528 37,000  Climbing FlightAware
01:42AM 53.8724 1.7201 123° Southeast 452 520 35,500 -2,520 Descending FlightAware UK
01:43AM 53.8515 1.7737 123° Southeast 450 518 35,500 4,080 Level FlightAware UK
01:43AM 53.8710 1.8230 123° Southeast 457 526 37,000  Climbing FlightAware
01:43AM 53.8234 1.8457 123° Southeast 448 516 35,500  Descending FlightAware UK
01:43AM 53.8170 1.9580 123° Southeast 452 520 37,000  Climbing FlightAware
01:44AM 53.7750 1.9699 123° Southeast 450 518 35,500 -2,520 Descending FlightAware UK
01:44AM 53.7540 2.0238 123° Southeast 450 518 35,500 3,900 Level FlightAware UK
01:44AM 53.7720 2.0710 123° Southeast 456 525 37,000  Climbing FlightAware
01:44AM 53.7262 2.0949 123° Southeast 450 518 35,500 -2,460 Descending FlightAware UK
01:45AM 53.7056 2.1475 124° Southeast 448 516 35,500 3,600 Level FlightAware UK
01:45AM 53.7180 2.2060 124° Southeast 455 524 37,000  Climbing FlightAware
01:45AM 53.6705 2.2363 124° Southeast 448 516 35,500  Descending FlightAware UK
01:45AM 53.6730 2.3180 124° Southeast 455 524 37,000  Climbing FlightAware
01:46AM 53.6355 2.3251 124° Southeast 448 516 35,500 -2,160 Descending FlightAware UK
01:46AM 53.6075 2.3955 124° Southeast 450 518 35,500 3,300 Level FlightAware UK
01:46AM 53.6200 2.4500 124° Southeast 454 522 37,000  Climbing FlightAware
01:46AM 53.5868 2.4476 124° Southeast 450 518 35,500 -2,760 Descending FlightAware UK
01:47AM 53.5656 2.5010 124° Southeast 450 518 35,500 3,000 Level FlightAware UK
01:47AM 53.5680 2.5780 124° Southeast 452 520 37,000  Climbing FlightAware
01:47AM 53.5310 2.5889 124° Southeast 454 522 35,500 -2,520 Descending FlightAware UK
01:47AM 53.5101 2.6414 124° Southeast 454 522 35,500 4,080 Level FlightAware UK
01:48AM 53.5200 2.6960 124° Southeast 452 520 37,000 2,040 Climbing FlightAware
01:48AM 53.4760 2.8060 124° Southeast 451 519 37,000 -1,500 Level FlightAware
01:49AM 53.4331 2.8334 124° Southeast 454 522 35,500 -2,280 Descending FlightAware UK
01:49AM 53.4122 2.8853 124° Southeast 454 522 35,500 4,980 Level FlightAware UK
01:49AM 53.4280 2.9220 124° Southeast 450 518 37,000  Climbing FlightAware
01:49AM 53.3911 2.9370 124° Southeast 454 522 35,500 -2,520 Descending FlightAware UK
01:49AM 53.3688 2.9881 126° Southeast 456 525 35,500 3,300 Level FlightAware UK
01:50AM 53.3730 3.0480 126° Southeast 451 519 37,000  Climbing FlightAware
01:50AM 53.3310 3.0705 126° Southeast 456 525 35,500  Descending FlightAware UK
01:50AM 53.3150 3.1730 126° Southeast 450 518 37,000  Climbing FlightAware
01:51AM 53.2615 3.2189 126° Southeast 450 518 35,500  Descending FlightAware UK
01:51AM 53.2600 3.2870 126° Southeast 450 518 37,000  Climbing FlightAware
01:51AM 53.2224 3.3011 126° Southeast 448 516 35,500 -2,400 Descending FlightAware UK
01:52AM 53.1992 3.3501 128° Southeast 446 513 35,500 4,500 Level FlightAware UK
01:52AM 53.2080 3.3950 128° Southeast 451 519 37,000  Climbing FlightAware
01:52AM 53.1760 3.3992 128° Southeast 446 513 35,500 -2,700 Descending FlightAware UK
01:52AM 53.1530 3.4487 128° Southeast 450 518 35,500 3,060 Level FlightAware UK
01:52AM 53.1500 3.5170 128° Southeast 452 520 37,000  Climbing FlightAware
01:53AM 53.0987 3.5643 128° Southeast 448 516 35,500  Descending FlightAware UK
01:53AM 53.0990 3.6240 128° Southeast 454 522 37,000  Climbing FlightAware
01:53AM 53.0677 3.6301 128° Southeast 450 518 35,500 -2,700 Descending FlightAware UK
01:54AM 53.0443 3.6794 128° Southeast 450 518 35,500 3,060 Level FlightAware UK
01:54AM 53.0390 3.7480 128° Southeast 455 524 37,000  Climbing FlightAware
01:54AM 52.9892 3.7941 128° Southeast 450 518 35,500  Descending FlightAware UK
01:55AM 52.9860 3.8560 128° Southeast 455 524 37,000  Climbing FlightAware
01:55AM 52.9497 3.8769 128° Southeast 454 522 35,500 -2,340 Descending FlightAware UK
01:55AM 52.9265 3.9257 128° Southeast 460 529 35,500 3,720 Level FlightAware UK
01:55AM 52.9290 3.9740 128° Southeast 456 525 37,000  Climbing FlightAware
01:56AM 52.8865 4.0079 128° Southeast 456 525 35,500  Descending FlightAware UK
01:56AM 52.8760 4.0810 128° Southeast 457 526 37,000  Climbing FlightAware
01:56AM 52.8307 4.1222 128° Southeast 454 522 35,500  Descending FlightAware UK
01:57AM 52.8210 4.1930 128° Southeast 457 526 37,000 -240 Climbing FlightAware
01:57AM 52.7910 4.2038 128° Southeast 462 532 35,400 -2,880 Descending FlightAware UK
01:57AM 52.7671 4.2528 129° Southeast 462 532 35,400 3,300 Level FlightAware UK
01:57AM 52.7600 4.3160 129° Southeast 457 526 37,000 180 Climbing FlightAware
01:58AM 52.7273 4.3342 129° Southeast 460 529 35,500 -2,460 Descending FlightAware UK
01:58AM 52.7035 4.3831 129° Southeast 458 527 35,500 4,260 Level FlightAware UK
01:58AM 52.7060 4.4240 129° Southeast 456 525 37,000  Climbing FlightAware
01:58AM 52.6795 4.4318 129° Southeast 458 527 35,500 -2,760 Descending FlightAware UK
01:59AM 52.6557 4.4806 129° Southeast 460 529 35,500 3,000 Level FlightAware UK
01:59AM 52.6490 4.5400 129° Southeast 456 525 37,000  Climbing FlightAware
01:59AM 52.6157 4.5618 129° Southeast 458 527 35,500  Descending FlightAware UK
01:59AM 52.5930 4.6510 129° Southeast 457 526 37,000  Climbing FlightAware
02:00AM 52.5517 4.6917 129° Southeast 462 532 35,500  Descending FlightAware UK
02:00AM 52.5410 4.7540 129° Southeast 456 525 37,000  Climbing FlightAware
02:01AM 52.4879 4.8210 129° Southeast 462 532 35,500  Descending FlightAware UK
02:01AM 52.4790 4.8770 129° Southeast 456 525 37,000  Climbing FlightAware
02:01AM 52.4481 4.9017 129° Southeast 460 529 35,500  Descending FlightAware UK
02:02AM 52.4270 4.9820 129° Southeast 457 526 37,000 1,440 Climbing FlightAware
02:02AM 52.3720 5.0900 130° Southeast 457 526 37,000 -1,740 Level FlightAware
02:02AM 52.3424 5.1101 130° Southeast 458 527 35,400 -2,760 Descending FlightAware UK
02:03AM 52.3183 5.1585 129° Southeast 458 527 35,400 3,420 Level FlightAware UK
02:03AM 52.3130 5.2060 129° Southeast 457 526 37,000 1,920 Climbing FlightAware
02:04AM 52.2570 5.3160 130° Southeast 459 528 37,000  Level FlightAware
02:04AM 52.1950 5.4380 130° Southeast 458 527 37,000 -1,320 Level FlightAware
02:05AM 52.1564 5.4791 130° Southeast 466 536 35,500  Descending FlightAware UK
02:05AM 52.1430 5.5380 130° Southeast 458 527 37,000 1,500 Climbing FlightAware
02:06AM 52.0830 5.6560 130° Southeast 458 527 37,000  Level FlightAware
02:06AM 52.0280 5.7610 130° Southeast 456 525 37,000  Level FlightAware
02:07AM 51.9750 5.8630 130° Southeast 455 524 37,000  Level FlightAware
02:08AM 51.9110 5.9860 130° Southeast 454 522 37,000  Level FlightAware
02:09AM 51.8580 6.0880 130° Southeast 453 521 37,000  Level FlightAware
02:09AM 51.7950 6.1950 134° Southeast 449 517 37,000  Level FlightAware
02:10AM 51.7400 6.2840 135° Southeast 448 516 37,000  Level FlightAware
02:11AM 51.6770 6.3840 135° Southeast 445 512 37,000  Level FlightAware
02:11AM 51.6140 6.4840 135° Southeast 444 511 37,000  Level FlightAware
02:12AM 51.5530 6.5800 136° Southeast 442 509 37,000  Level FlightAware
02:13AM 51.4900 6.6790 136° Southeast 441 507 37,000  Level FlightAware
02:13AM 51.4310 6.7700 136° Southeast 440 506 37,000  Level FlightAware
02:14AM 51.3720 6.8640 135° Southeast 439 505 37,000  Level FlightAware
02:15AM 51.3060 6.9660 136° Southeast 438 504 37,000  Level FlightAware
02:16AM 51.2470 7.0580 136° Southeast 438 504 37,000  Level FlightAware
02:16AM 51.2010 7.1310 135° Southeast 437 503 37,000  Level FlightAware
02:17AM 51.1220 7.2520 136° Southeast 438 504 37,000  Level FlightAware
02:18AM 51.0650 7.3400 136° Southeast 438 504 37,000  Level FlightAware
02:18AM 51.0070 7.4290 136° Southeast 439 505 37,000  Level FlightAware
02:19AM 50.9460 7.5240 136° Southeast 439 505 37,000  Level FlightAware
02:20AM 50.8840 7.6170 137° Southeast 439 505 37,000  Level FlightAware
02:20AM 50.8220 7.7120 136° Southeast 439 505 37,000  Level FlightAware
02:21AM 50.7610 7.8040 136° Southeast 439 505 37,000  Level FlightAware
02:22AM 50.6930 7.9080 136° Southeast 439 505 37,000 -480 Level FlightAware
02:23AM 50.6140 8.0270 136° Southeast 425 489 36,200 -960 Descending FlightAware
02:24AM 50.5390 8.1390 136° Southeast 440 506 35,300 -900 Descending FlightAware
02:24AM 50.4910 8.2100 137° Southeast 448 516 35,000 -240 Descending FlightAware
02:25AM 50.4190 8.3170 137° Southeast 451 519 35,000  Level FlightAware
02:26AM 50.3510 8.4190 136° Southeast 446 513 35,000  Level FlightAware
02:26AM 50.2920 8.5060 137° Southeast 443 510 35,000  Level FlightAware
02:27AM 50.2210 8.6110 137° Southeast 439 505 35,000  Level FlightAware
02:28AM 50.1640 8.6940 137° Southeast 441 507 35,000  Level FlightAware
02:29AM 50.1040 8.7820 137° Southeast 441 507 35,000  Level FlightAware
02:29AM 50.0340 8.8830 137° Southeast 440 506 35,000  Level FlightAware
02:30AM 49.9670 8.9780 138° Southeast 440 506 35,000  Level FlightAware
02:31AM 49.9070 9.0630 138° Southeast 440 506 35,000  Level FlightAware
02:31AM 49.8460 9.1510 137° Southeast 439 505 35,000  Level FlightAware
02:32AM 49.7840 9.2380 138° Southeast 436 502 35,000 -1,020 Level FlightAware
02:33AM 49.7210 9.3280 137° Southeast 441 507 33,600 -1,860 Descending FlightAware
02:34AM 49.6530 9.4230 138° Southeast 417 480 32,400 -2,220 Descending FlightAware
02:34AM 49.6010 9.5080 133° Southeast 423 487 30,500 -2,700 Descending FlightAware
02:35AM 49.5300 9.6340 131° Southeast 424 488 28,200 -2,220 Descending FlightAware
02:36AM 49.4700 9.7400 131° Southeast 414 476 26,800 -1,920 Descending FlightAware
02:37AM 49.4210 9.8270 131° Southeast 406 467 25,500 -1,980 Descending FlightAware
02:37AM 49.3720 9.9130 131° Southeast 400 460 24,200 -1,920 Descending FlightAware
02:38AM 49.3230 9.9990 131° Southeast 397 457 22,800 -1,980 Descending FlightAware
02:39AM 49.2740 10.0820 132° Southeast 395 455 21,400 -1,980 Descending FlightAware
02:39AM 49.2230 10.1710 131° Southeast 390 449 20,200 -1,740 Descending FlightAware
02:41AM 49.1270 10.3340 132° Southeast 376 433 17,800 -1,680 Descending FlightAware
02:41AM 49.0700 10.4230 134° Southeast 367 422 16,600 -1,680 Descending FlightAware
02:42AM 49.0230 10.4990 133° Southeast 361 415 15,500 -1,560 Descending FlightAware
02:43AM 48.9710 10.5840 133° Southeast 353 406 14,400 -1,380 Descending FlightAware
02:44AM 48.9250 10.6570 134° Southeast 347 399 13,600 -1,080 Descending FlightAware
02:44AM 48.8840 10.7230 133° Southeast 336 387 13,000 -480 Descending FlightAware
02:45AM 48.8360 10.8010 133° Southeast 339 390 13,000  Level FlightAware
02:46AM 48.7980 10.8610 134° Southeast 340 391 13,000  Level FlightAware
02:46AM 48.7530 10.9340 133° Southeast 340 391 13,000  Level FlightAware
02:47AM 48.7140 10.9910 136° Southeast 343 395 13,000 -600 Level FlightAware
02:48AM 48.6680 11.0580 136° Southeast 331 381 12,300 -900 Descending FlightAware
02:48AM 48.6070 11.1460 136° Southeast 293 337 11,700 -840 Descending FlightAware
02:49AM 48.5650 11.1890 146° Southeast 283 326 11,100 -1,020 Descending FlightAware
02:50AM 48.5170 11.2340 148° Southeast 266 306 10,300 -1,140 Descending FlightAware
02:50AM 48.4980 11.2520 148° Southeast 265 305 9,900 -1,320 Descending FlightAware
02:51AM 48.4630 11.2830 150° Southeast 264 304 9,200 -1,380 Descending FlightAware
02:51AM 48.4500 11.2940 151° Southeast 263 303 8,900 -1,380 Descending FlightAware
02:51AM 48.4150 11.3220 152° Southeast 257 296 8,200 -1,320 Descending FlightAware
02:52AM 48.3820 11.3460 154° Southeast 255 293 7,600 -1,200 Descending FlightAware
02:52AM 48.3590 11.3740 141° Southeast 244 281 7,100 -1,200 Descending FlightAware
02:53AM 48.3510 11.3970 118° Southeast 238 274 6,800 -1,200 Descending FlightAware
02:53AM 48.3450 11.4350 103° East 234 269 6,300 -1,440 Descending FlightAware
02:54AM 48.3460 11.4840 88° East 226 260 5,500 -1,440 Descending FlightAware
02:54AM 48.3490 11.5260 84° East 217 250 4,900 -780 Descending FlightAware
02:54AM 48.3510 11.5650 86° East 186 214 4,800 -660 Descending FlightAware
02:55AM 48.3540 11.6020 83° East 171 197 4,300 -1,020 Descending FlightAware
02:55AM 48.3560 11.6340 85° East 156 180 3,800 -900 Descending FlightAware
02:56AM 48.3580 11.6610 84° East 149 171 3,500 -780 Descending FlightAware
02:56AM 48.3600 11.6910 84° East 127 146 3,100 -840 Descending FlightAware
02:57AM 48.3600 11.7020 90° East 116 133 2,900 -600 Descending FlightAware
02:57AM 48.3610 11.7200 85° East 117 135 2,700 -660 Descending FlightAware
02:58AM 48.3630 11.7480 84° East 118 136 2,300 -780 Descending FlightAware
02:58AM 48.3640 11.7680 86° East 124 143 2,000 -660 Descending FlightAware
02:58AM 48.3660 11.7940 83° East 126 145 1,700 -720 Descending FlightAware
02:59AM 48.3670 11.8210 87° East 129 148 1,300 -840 Descending FlightAware